sensor_id;sensor_type;location;lat;lon;timestamp;temperature;humidity
21487;DHT22;10905;50.822;4.336;2022-07-17T00:00:25;18.80;99.90
21487;DHT22;10905;50.822;4.336;2022-07-17T00:02:51;18.80;99.90
21487;DHT22;10905;50.822;4.336;2022-07-17T00:05:16;18.80;99.90
21487;DHT22;10905;50.822;4.336;2022-07-17T00:07:42;18.90;99.90
21487;DHT22;10905;50.822;4.336;2022-07-17T00:10:08;18.80;99.90
21487;DHT22;10905;50.822;4.336;2022-07-17T00:12:34;18.70;99.90
21487;DHT22;10905;50.822;4.336;2022-07-17T00:14:59;18.70;99.90
21487;DHT22;10905;50.822;4.336;2022-07-17T00:17:25;18.80;99.90
21487;DHT22;10905;50.822;4.336;2022-07-17T00:19:50;18.70;99.90
21487;DHT22;10905;50.822;4.336;2022-07-17T00:22:16;18.70;99.90
21487;DHT22;10905;50.822;4.336;2022-07-17T00:24:41;18.60;99.90
21487;DHT22;10905;50.822;4.336;2022-07-17T00:27:07;18.50;99.90
21487;DHT22;10905;50.822;4.336;2022-07-17T00:29:32;18.50;99.90
21487;DHT22;10905;50.822;4.336;2022-07-17T00:31:58;18.50;99.90
21487;DHT22;10905;50.822;4.336;2022-07-17T00:34:23;18.50;99.90
21487;DHT22;10905;50.822;4.336;2022-07-17T00:36:49;18.40;99.90
21487;DHT22;10905;50.822;4.336;2022-07-17T00:39:15;18.40;99.90
21487;DHT22;10905;50.822;4.336;2022-07-17T00:41:42;18.40;99.90
21487;DHT22;10905;50.822;4.336;2022-07-17T00:44:09;18.40;99.90
21487;DHT22;10905;50.822;4.336;2022-07-17T00:46:35;18.30;99.90
21487;DHT22;10905;50.822;4.336;2022-07-17T00:49:01;18.50;99.90
21487;DHT22;10905;50.822;4.336;2022-07-17T00:51:27;18.40;99.90
21487;DHT22;10905;50.822;4.336;2022-07-17T00:53:53;18.50;99.90
21487;DHT22;10905;50.822;4.336;2022-07-17T00:56:20;18.40;99.90
21487;DHT22;10905;50.822;4.336;2022-07-17T00:58:46;18.30;99.90
21487;DHT22;10905;50.822;4.336;2022-07-17T01:01:13;18.30;99.90
21487;DHT22;10905;50.822;4.336;2022-07-17T01:03:39;18.40;99.90
21487;DHT22;10905;50.822;4.336;2022-07-17T01:06:04;18.30;99.90
21487;DHT22;10905;50.822;4.336;2022-07-17T01:08:30;18.40;99.90
21487;DHT22;10905;50.822;4.336;2022-07-17T01:10:56;18.30;99.90
21487;DHT22;10905;50.822;4.336;2022-07-17T01:13:22;18.10;99.90
21487;DHT22;10905;50.822;4.336;2022-07-17T01:15:48;18.00;99.90
21487;DHT22;10905;50.822;4.336;2022-07-17T01:18:14;18.10;99.90
21487;DHT22;10905;50.822;4.336;2022-07-17T01:20:41;18.00;99.90
21487;DHT22;10905;50.822;4.336;2022-07-17T01:23:07;18.00;99.90
21487;DHT22;10905;50.822;4.336;2022-07-17T01:25:32;18.00;99.90
21487;DHT22;10905;50.822;4.336;2022-07-17T01:27:58;18.00;99.90
21487;DHT22;10905;50.822;4.336;2022-07-17T01:30:24;18.10;99.90
21487;DHT22;10905;50.822;4.336;2022-07-17T01:32:50;18.10;99.90
21487;DHT22;10905;50.822;4.336;2022-07-17T01:35:15;18.10;99.90
21487;DHT22;10905;50.822;4.336;2022-07-17T01:37:41;18.30;99.90
21487;DHT22;10905;50.822;4.336;2022-07-17T01:40:07;18.20;99.90
21487;DHT22;10905;50.822;4.336;2022-07-17T01:42:34;18.20;99.90
21487;DHT22;10905;50.822;4.336;2022-07-17T01:44:59;18.10;99.90
21487;DHT22;10905;50.822;4.336;2022-07-17T01:47:25;18.10;99.90
21487;DHT22;10905;50.822;4.336;2022-07-17T01:49:53;17.80;99.90
21487;DHT22;10905;50.822;4.336;2022-07-17T01:52:19;17.70;99.90
21487;DHT22;10905;50.822;4.336;2022-07-17T01:54:45;17.70;99.90
21487;DHT22;10905;50.822;4.336;2022-07-17T01:57:11;17.70;99.90
21487;DHT22;10905;50.822;4.336;2022-07-17T01:59:37;17.80;99.90
21487;DHT22;10905;50.822;4.336;2022-07-17T02:02:03;17.80;99.90
21487;DHT22;10905;50.822;4.336;2022-07-17T02:04:30;17.80;99.90
21487;DHT22;10905;50.822;4.336;2022-07-17T02:06:56;17.70;99.90
21487;DHT22;10905;50.822;4.336;2022-07-17T02:09:22;17.70;99.90
21487;DHT22;10905;50.822;4.336;2022-07-17T02:11:47;17.80;99.90
21487;DHT22;10905;50.822;4.336;2022-07-17T02:14:13;17.80;99.90
21487;DHT22;10905;50.822;4.336;2022-07-17T02:16:39;17.90;99.90
21487;DHT22;10905;50.822;4.336;2022-07-17T02:19:04;17.90;99.90
21487;DHT22;10905;50.822;4.336;2022-07-17T02:21:30;17.80;99.90
21487;DHT22;10905;50.822;4.336;2022-07-17T02:23:55;17.70;99.90
21487;DHT22;10905;50.822;4.336;2022-07-17T02:26:21;17.60;99.90
21487;DHT22;10905;50.822;4.336;2022-07-17T02:28:46;17.60;99.90
21487;DHT22;10905;50.822;4.336;2022-07-17T02:31:12;17.60;99.90
21487;DHT22;10905;50.822;4.336;2022-07-17T02:33:37;17.70;99.90
21487;DHT22;10905;50.822;4.336;2022-07-17T02:36:03;17.70;99.90
21487;DHT22;10905;50.822;4.336;2022-07-17T02:38:29;17.70;99.90
21487;DHT22;10905;50.822;4.336;2022-07-17T02:40:54;17.70;99.90
21487;DHT22;10905;50.822;4.336;2022-07-17T02:43:20;17.60;99.90
21487;DHT22;10905;50.822;4.336;2022-07-17T02:45:45;17.70;99.90
21487;DHT22;10905;50.822;4.336;2022-07-17T02:48:11;17.70;99.90
21487;DHT22;10905;50.822;4.336;2022-07-17T02:50:36;17.70;99.90
21487;DHT22;10905;50.822;4.336;2022-07-17T02:53:02;17.60;99.90
21487;DHT22;10905;50.822;4.336;2022-07-17T02:55:27;17.60;99.90
21487;DHT22;10905;50.822;4.336;2022-07-17T02:57:55;17.60;99.90
21487;DHT22;10905;50.822;4.336;2022-07-17T03:00:20;17.70;99.90
21487;DHT22;10905;50.822;4.336;2022-07-17T03:02:46;17.80;99.90
21487;DHT22;10905;50.822;4.336;2022-07-17T03:05:13;17.60;99.90
21487;DHT22;10905;50.822;4.336;2022-07-17T03:07:39;17.50;99.90
21487;DHT22;10905;50.822;4.336;2022-07-17T03:10:05;17.50;99.90
21487;DHT22;10905;50.822;4.336;2022-07-17T03:12:30;17.60;99.90
21487;DHT22;10905;50.822;4.336;2022-07-17T03:14:56;17.70;99.90
21487;DHT22;10905;50.822;4.336;2022-07-17T03:17:21;17.70;99.90
21487;DHT22;10905;50.822;4.336;2022-07-17T03:19:47;17.60;99.90
21487;DHT22;10905;50.822;4.336;2022-07-17T03:22:12;17.50;99.90
21487;DHT22;10905;50.822;4.336;2022-07-17T03:24:38;17.40;99.90
21487;DHT22;10905;50.822;4.336;2022-07-17T03:27:04;17.40;99.90
21487;DHT22;10905;50.822;4.336;2022-07-17T03:29:29;17.30;99.90
21487;DHT22;10905;50.822;4.336;2022-07-17T03:31:55;17.40;99.90
21487;DHT22;10905;50.822;4.336;2022-07-17T03:34:20;17.20;99.90
21487;DHT22;10905;50.822;4.336;2022-07-17T03:36:46;17.30;99.90
21487;DHT22;10905;50.822;4.336;2022-07-17T03:39:12;17.30;99.90
21487;DHT22;10905;50.822;4.336;2022-07-17T03:41:37;17.40;99.90
21487;DHT22;10905;50.822;4.336;2022-07-17T03:44:03;17.30;99.90
21487;DHT22;10905;50.822;4.336;2022-07-17T03:46:28;17.20;99.90
21487;DHT22;10905;50.822;4.336;2022-07-17T03:48:54;17.20;99.90
21487;DHT22;10905;50.822;4.336;2022-07-17T03:51:19;17.10;99.90
21487;DHT22;10905;50.822;4.336;2022-07-17T03:53:45;17.10;99.90
21487;DHT22;10905;50.822;4.336;2022-07-17T03:56:10;17.20;99.90
21487;DHT22;10905;50.822;4.336;2022-07-17T03:58:36;17.10;99.90
21487;DHT22;10905;50.822;4.336;2022-07-17T04:01:02;17.10;99.90
21487;DHT22;10905;50.822;4.336;2022-07-17T04:03:28;17.20;99.90
21487;DHT22;10905;50.822;4.336;2022-07-17T04:05:53;17.10;99.90
21487;DHT22;10905;50.822;4.336;2022-07-17T04:08:19;17.00;99.90
21487;DHT22;10905;50.822;4.336;2022-07-17T04:10:44;17.00;99.90
21487;DHT22;10905;50.822;4.336;2022-07-17T04:13:10;17.00;99.90
21487;DHT22;10905;50.822;4.336;2022-07-17T04:15:35;17.10;99.90
21487;DHT22;10905;50.822;4.336;2022-07-17T04:18:20;17.00;99.90
21487;DHT22;10905;50.822;4.336;2022-07-17T04:20:48;16.90;99.90
21487;DHT22;10905;50.822;4.336;2022-07-17T04:23:14;16.70;99.90
21487;DHT22;10905;50.822;4.336;2022-07-17T04:25:40;16.70;99.90
21487;DHT22;10905;50.822;4.336;2022-07-17T04:28:06;16.80;99.90
21487;DHT22;10905;50.822;4.336;2022-07-17T04:30:31;16.90;99.90
21487;DHT22;10905;50.822;4.336;2022-07-17T04:32:57;16.90;99.90
21487;DHT22;10905;50.822;4.336;2022-07-17T04:35:23;16.90;99.90
21487;DHT22;10905;50.822;4.336;2022-07-17T04:37:48;17.00;99.90
21487;DHT22;10905;50.822;4.336;2022-07-17T04:40:14;17.00;99.90
21487;DHT22;10905;50.822;4.336;2022-07-17T04:42:39;17.10;99.90
21487;DHT22;10905;50.822;4.336;2022-07-17T04:45:05;17.00;99.90
21487;DHT22;10905;50.822;4.336;2022-07-17T04:47:31;17.00;99.90
21487;DHT22;10905;50.822;4.336;2022-07-17T04:49:56;17.10;99.90
21487;DHT22;10905;50.822;4.336;2022-07-17T04:52:22;17.00;99.90
21487;DHT22;10905;50.822;4.336;2022-07-17T04:54:47;17.00;99.90
21487;DHT22;10905;50.822;4.336;2022-07-17T04:57:13;17.10;99.90
21487;DHT22;10905;50.822;4.336;2022-07-17T04:59:38;17.00;99.90
21487;DHT22;10905;50.822;4.336;2022-07-17T05:02:04;17.00;99.90
21487;DHT22;10905;50.822;4.336;2022-07-17T05:04:29;17.10;99.90
21487;DHT22;10905;50.822;4.336;2022-07-17T05:06:55;17.20;99.90
21487;DHT22;10905;50.822;4.336;2022-07-17T05:09:21;17.20;99.90
21487;DHT22;10905;50.822;4.336;2022-07-17T05:11:46;17.20;99.90
21487;DHT22;10905;50.822;4.336;2022-07-17T05:14:12;17.20;99.90
21487;DHT22;10905;50.822;4.336;2022-07-17T05:16:37;17.20;99.90
21487;DHT22;10905;50.822;4.336;2022-07-17T05:19:03;17.30;99.90
21487;DHT22;10905;50.822;4.336;2022-07-17T05:21:28;17.20;99.90
21487;DHT22;10905;50.822;4.336;2022-07-17T05:23:54;17.20;99.90
21487;DHT22;10905;50.822;4.336;2022-07-17T05:26:19;17.20;99.90
21487;DHT22;10905;50.822;4.336;2022-07-17T05:28:45;17.30;99.90
21487;DHT22;10905;50.822;4.336;2022-07-17T05:31:10;17.30;99.90
21487;DHT22;10905;50.822;4.336;2022-07-17T05:33:36;17.30;99.90
21487;DHT22;10905;50.822;4.336;2022-07-17T05:36:01;17.40;99.90
21487;DHT22;10905;50.822;4.336;2022-07-17T05:38:27;17.50;99.90
21487;DHT22;10905;50.822;4.336;2022-07-17T05:40:52;17.60;99.90
21487;DHT22;10905;50.822;4.336;2022-07-17T05:43:18;17.60;99.90
21487;DHT22;10905;50.822;4.336;2022-07-17T05:45:43;17.70;99.90
21487;DHT22;10905;50.822;4.336;2022-07-17T05:48:09;17.80;99.90
21487;DHT22;10905;50.822;4.336;2022-07-17T05:50:35;18.00;99.90
21487;DHT22;10905;50.822;4.336;2022-07-17T05:53:00;17.90;99.90
21487;DHT22;10905;50.822;4.336;2022-07-17T05:55:26;17.90;99.90
21487;DHT22;10905;50.822;4.336;2022-07-17T05:57:51;17.90;99.90
21487;DHT22;10905;50.822;4.336;2022-07-17T06:00:17;18.10;99.90
21487;DHT22;10905;50.822;4.336;2022-07-17T06:02:43;18.30;99.90
21487;DHT22;10905;50.822;4.336;2022-07-17T06:05:09;18.30;99.90
21487;DHT22;10905;50.822;4.336;2022-07-17T06:07:35;18.50;99.90
21487;DHT22;10905;50.822;4.336;2022-07-17T06:10:01;18.60;99.90
21487;DHT22;10905;50.822;4.336;2022-07-17T06:12:27;18.60;99.90
21487;DHT22;10905;50.822;4.336;2022-07-17T06:14:52;18.70;99.90
21487;DHT22;10905;50.822;4.336;2022-07-17T06:17:18;18.70;99.90
21487;DHT22;10905;50.822;4.336;2022-07-17T06:19:44;18.70;99.90
21487;DHT22;10905;50.822;4.336;2022-07-17T06:22:10;18.60;99.90
21487;DHT22;10905;50.822;4.336;2022-07-17T06:24:35;18.60;99.90
21487;DHT22;10905;50.822;4.336;2022-07-17T06:27:01;18.80;99.90
21487;DHT22;10905;50.822;4.336;2022-07-17T06:29:26;19.00;99.90
21487;DHT22;10905;50.822;4.336;2022-07-17T06:31:52;19.00;99.90
21487;DHT22;10905;50.822;4.336;2022-07-17T06:34:17;19.00;99.90
21487;DHT22;10905;50.822;4.336;2022-07-17T06:36:43;19.00;99.90
21487;DHT22;10905;50.822;4.336;2022-07-17T06:39:08;19.00;99.90
21487;DHT22;10905;50.822;4.336;2022-07-17T06:41:34;19.10;99.90
21487;DHT22;10905;50.822;4.336;2022-07-17T06:43:59;19.20;99.90
21487;DHT22;10905;50.822;4.336;2022-07-17T06:46:25;19.30;99.90
21487;DHT22;10905;50.822;4.336;2022-07-17T06:48:51;19.30;99.90
21487;DHT22;10905;50.822;4.336;2022-07-17T06:51:17;19.30;99.90
21487;DHT22;10905;50.822;4.336;2022-07-17T06:53:43;19.30;99.90
21487;DHT22;10905;50.822;4.336;2022-07-17T06:56:08;19.40;99.90
21487;DHT22;10905;50.822;4.336;2022-07-17T06:58:34;19.60;99.90
21487;DHT22;10905;50.822;4.336;2022-07-17T07:01:00;19.50;99.90
21487;DHT22;10905;50.822;4.336;2022-07-17T07:03:25;19.50;99.90
21487;DHT22;10905;50.822;4.336;2022-07-17T07:05:51;19.50;99.90
21487;DHT22;10905;50.822;4.336;2022-07-17T07:08:16;19.70;99.90
21487;DHT22;10905;50.822;4.336;2022-07-17T07:10:42;19.80;99.90
21487;DHT22;10905;50.822;4.336;2022-07-17T07:13:08;19.90;99.90
21487;DHT22;10905;50.822;4.336;2022-07-17T07:15:34;20.00;99.90
21487;DHT22;10905;50.822;4.336;2022-07-17T07:17:59;20.20;99.90
21487;DHT22;10905;50.822;4.336;2022-07-17T07:20:25;20.20;99.90
21487;DHT22;10905;50.822;4.336;2022-07-17T07:22:50;20.30;99.90
21487;DHT22;10905;50.822;4.336;2022-07-17T07:25:16;20.40;99.90
21487;DHT22;10905;50.822;4.336;2022-07-17T07:27:41;20.40;99.90
21487;DHT22;10905;50.822;4.336;2022-07-17T07:30:07;20.70;99.90
21487;DHT22;10905;50.822;4.336;2022-07-17T07:32:35;20.80;99.90
21487;DHT22;10905;50.822;4.336;2022-07-17T07:35:01;20.90;99.90
21487;DHT22;10905;50.822;4.336;2022-07-17T07:37:26;20.80;99.90
21487;DHT22;10905;50.822;4.336;2022-07-17T07:39:52;20.70;99.90
21487;DHT22;10905;50.822;4.336;2022-07-17T07:42:17;20.70;99.90
21487;DHT22;10905;50.822;4.336;2022-07-17T07:44:43;20.60;99.90
21487;DHT22;10905;50.822;4.336;2022-07-17T07:47:08;20.80;99.90
21487;DHT22;10905;50.822;4.336;2022-07-17T07:49:34;20.90;99.90
21487;DHT22;10905;50.822;4.336;2022-07-17T07:51:59;21.10;99.90
21487;DHT22;10905;50.822;4.336;2022-07-17T07:54:25;21.00;99.90
21487;DHT22;10905;50.822;4.336;2022-07-17T07:56:50;21.00;99.90
21487;DHT22;10905;50.822;4.336;2022-07-17T07:59:16;21.20;99.90
21487;DHT22;10905;50.822;4.336;2022-07-17T08:01:41;21.30;99.90
21487;DHT22;10905;50.822;4.336;2022-07-17T08:04:07;21.20;99.90
21487;DHT22;10905;50.822;4.336;2022-07-17T08:06:32;21.20;99.90
21487;DHT22;10905;50.822;4.336;2022-07-17T08:08:58;21.20;99.90
21487;DHT22;10905;50.822;4.336;2022-07-17T08:11:23;21.30;99.90
21487;DHT22;10905;50.822;4.336;2022-07-17T08:13:50;21.30;99.90
21487;DHT22;10905;50.822;4.336;2022-07-17T08:16:15;21.40;99.90
21487;DHT22;10905;50.822;4.336;2022-07-17T08:18:41;21.50;99.90
21487;DHT22;10905;50.822;4.336;2022-07-17T08:21:06;21.50;99.90
21487;DHT22;10905;50.822;4.336;2022-07-17T08:23:32;21.50;99.90
21487;DHT22;10905;50.822;4.336;2022-07-17T08:25:57;21.50;99.90
21487;DHT22;10905;50.822;4.336;2022-07-17T08:28:23;21.80;99.90
21487;DHT22;10905;50.822;4.336;2022-07-17T08:30:49;21.90;99.90
21487;DHT22;10905;50.822;4.336;2022-07-17T08:33:15;22.00;99.90
21487;DHT22;10905;50.822;4.336;2022-07-17T08:35:41;22.10;99.90
21487;DHT22;10905;50.822;4.336;2022-07-17T08:38:07;22.00;99.90
21487;DHT22;10905;50.822;4.336;2022-07-17T08:40:34;22.00;99.90
21487;DHT22;10905;50.822;4.336;2022-07-17T08:43:00;22.20;99.90
21487;DHT22;10905;50.822;4.336;2022-07-17T08:45:25;22.10;99.90
21487;DHT22;10905;50.822;4.336;2022-07-17T08:47:52;22.20;99.90
21487;DHT22;10905;50.822;4.336;2022-07-17T08:50:22;22.10;99.90
21487;DHT22;10905;50.822;4.336;2022-07-17T08:52:48;21.90;99.90
21487;DHT22;10905;50.822;4.336;2022-07-17T08:55:14;22.20;99.90
21487;DHT22;10905;50.822;4.336;2022-07-17T08:57:41;22.40;99.90
21487;DHT22;10905;50.822;4.336;2022-07-17T09:00:07;22.40;99.90
21487;DHT22;10905;50.822;4.336;2022-07-17T09:02:35;22.30;99.90
21487;DHT22;10905;50.822;4.336;2022-07-17T09:05:01;22.20;99.90
21487;DHT22;10905;50.822;4.336;2022-07-17T09:07:26;22.40;99.90
21487;DHT22;10905;50.822;4.336;2022-07-17T09:09:52;22.60;99.90
21487;DHT22;10905;50.822;4.336;2022-07-17T09:12:23;22.60;99.90
21487;DHT22;10905;50.822;4.336;2022-07-17T09:14:49;22.80;99.90
21487;DHT22;10905;50.822;4.336;2022-07-17T09:17:15;22.80;99.90
21487;DHT22;10905;50.822;4.336;2022-07-17T09:19:41;22.90;99.90
21487;DHT22;10905;50.822;4.336;2022-07-17T09:22:08;23.00;99.90
21487;DHT22;10905;50.822;4.336;2022-07-17T09:25:07;23.20;99.90
21487;DHT22;10905;50.822;4.336;2022-07-17T09:27:32;23.20;99.90
21487;DHT22;10905;50.822;4.336;2022-07-17T09:32:28;23.30;99.90
21487;DHT22;10905;50.822;4.336;2022-07-17T09:34:54;23.40;99.40
21487;DHT22;10905;50.822;4.336;2022-07-17T09:37:21;23.40;99.60
21487;DHT22;10905;50.822;4.336;2022-07-17T09:39:47;23.50;99.50
21487;DHT22;10905;50.822;4.336;2022-07-17T09:42:30;23.60;99.60
21487;DHT22;10905;50.822;4.336;2022-07-17T09:47:22;23.50;98.80
21487;DHT22;10905;50.822;4.336;2022-07-17T09:49:47;23.40;99.30
21487;DHT22;10905;50.822;4.336;2022-07-17T09:52:13;23.60;99.10
21487;DHT22;10905;50.822;4.336;2022-07-17T09:54:41;23.80;99.10
21487;DHT22;10905;50.822;4.336;2022-07-17T09:57:06;23.80;99.10
21487;DHT22;10905;50.822;4.336;2022-07-17T09:59:34;23.70;98.90
21487;DHT22;10905;50.822;4.336;2022-07-17T10:02:00;23.80;98.00
21487;DHT22;10905;50.822;4.336;2022-07-17T10:04:26;24.00;97.70
21487;DHT22;10905;50.822;4.336;2022-07-17T10:06:52;23.90;98.60
21487;DHT22;10905;50.822;4.336;2022-07-17T10:09:18;24.20;98.30
21487;DHT22;10905;50.822;4.336;2022-07-17T10:11:45;24.20;97.50
21487;DHT22;10905;50.822;4.336;2022-07-17T10:14:11;23.90;97.40
21487;DHT22;10905;50.822;4.336;2022-07-17T10:16:37;23.80;97.40
21487;DHT22;10905;50.822;4.336;2022-07-17T10:19:17;23.70;98.00
21487;DHT22;10905;50.822;4.336;2022-07-17T10:21:51;23.90;97.80
21487;DHT22;10905;50.822;4.336;2022-07-17T10:24:17;24.10;97.00
21487;DHT22;10905;50.822;4.336;2022-07-17T10:26:42;24.20;94.50
21487;DHT22;10905;50.822;4.336;2022-07-17T10:31:54;24.10;96.70
21487;DHT22;10905;50.822;4.336;2022-07-17T10:34:36;24.20;96.40
21487;DHT22;10905;50.822;4.336;2022-07-17T10:37:13;24.20;96.40
21487;DHT22;10905;50.822;4.336;2022-07-17T10:39:38;24.50;96.40
21487;DHT22;10905;50.822;4.336;2022-07-17T10:42:04;24.80;95.00
21487;DHT22;10905;50.822;4.336;2022-07-17T10:44:30;24.80;96.30
21487;DHT22;10905;50.822;4.336;2022-07-17T10:46:57;24.90;95.60
21487;DHT22;10905;50.822;4.336;2022-07-17T10:49:23;25.10;95.00
21487;DHT22;10905;50.822;4.336;2022-07-17T10:51:48;25.00;93.90
21487;DHT22;10905;50.822;4.336;2022-07-17T10:54:16;24.90;95.40
21487;DHT22;10905;50.822;4.336;2022-07-17T10:56:42;25.00;94.70
21487;DHT22;10905;50.822;4.336;2022-07-17T10:59:09;24.80;94.30
21487;DHT22;10905;50.822;4.336;2022-07-17T11:01:35;24.90;93.50
21487;DHT22;10905;50.822;4.336;2022-07-17T11:04:01;25.10;92.70
21487;DHT22;10905;50.822;4.336;2022-07-17T11:06:31;25.10;92.70
21487;DHT22;10905;50.822;4.336;2022-07-17T11:08:58;25.00;93.30
21487;DHT22;10905;50.822;4.336;2022-07-17T11:11:34;25.20;93.20
21487;DHT22;10905;50.822;4.336;2022-07-17T11:14:11;25.20;93.90
21487;DHT22;10905;50.822;4.336;2022-07-17T11:16:37;25.30;94.20
21487;DHT22;10905;50.822;4.336;2022-07-17T11:19:03;25.40;92.60
21487;DHT22;10905;50.822;4.336;2022-07-17T11:21:29;25.50;92.00
21487;DHT22;10905;50.822;4.336;2022-07-17T11:23:56;25.10;92.40
21487;DHT22;10905;50.822;4.336;2022-07-17T11:26:22;25.10;92.90
21487;DHT22;10905;50.822;4.336;2022-07-17T11:28:48;25.30;92.40
21487;DHT22;10905;50.822;4.336;2022-07-17T11:31:24;25.40;90.10
21487;DHT22;10905;50.822;4.336;2022-07-17T11:33:57;25.50;90.40
21487;DHT22;10905;50.822;4.336;2022-07-17T11:38:49;25.80;87.60
21487;DHT22;10905;50.822;4.336;2022-07-17T11:41:18;25.80;88.30
21487;DHT22;10905;50.822;4.336;2022-07-17T11:43:44;26.00;90.70
21487;DHT22;10905;50.822;4.336;2022-07-17T11:46:10;26.10;91.00
21487;DHT22;10905;50.822;4.336;2022-07-17T11:48:35;26.10;92.00
21487;DHT22;10905;50.822;4.336;2022-07-17T11:51:01;26.20;91.80
21487;DHT22;10905;50.822;4.336;2022-07-17T11:53:30;26.30;91.20
21487;DHT22;10905;50.822;4.336;2022-07-17T11:55:56;26.40;89.80
21487;DHT22;10905;50.822;4.336;2022-07-17T11:58:22;26.10;88.50
21487;DHT22;10905;50.822;4.336;2022-07-17T12:00:47;26.10;90.20
21487;DHT22;10905;50.822;4.336;2022-07-17T12:03:13;26.30;90.00
21487;DHT22;10905;50.822;4.336;2022-07-17T12:05:38;26.30;88.40
21487;DHT22;10905;50.822;4.336;2022-07-17T12:08:07;26.30;87.30
21487;DHT22;10905;50.822;4.336;2022-07-17T12:10:33;26.30;88.40
21487;DHT22;10905;50.822;4.336;2022-07-17T12:20:46;26.90;86.10
21487;DHT22;10905;50.822;4.336;2022-07-17T12:23:28;26.90;88.30
21487;DHT22;10905;50.822;4.336;2022-07-17T12:26:05;27.00;86.50
21487;DHT22;10905;50.822;4.336;2022-07-17T12:28:31;27.10;85.40
21487;DHT22;10905;50.822;4.336;2022-07-17T12:30:56;27.00;83.40
21487;DHT22;10905;50.822;4.336;2022-07-17T12:33:22;27.00;85.00
21487;DHT22;10905;50.822;4.336;2022-07-17T12:35:47;27.20;84.60
21487;DHT22;10905;50.822;4.336;2022-07-17T12:38:13;27.00;87.20
21487;DHT22;10905;50.822;4.336;2022-07-17T12:40:38;27.20;85.80
21487;DHT22;10905;50.822;4.336;2022-07-17T12:43:04;27.40;87.80
21487;DHT22;10905;50.822;4.336;2022-07-17T12:45:30;27.50;85.50
21487;DHT22;10905;50.822;4.336;2022-07-17T12:47:55;27.40;86.00
21487;DHT22;10905;50.822;4.336;2022-07-17T12:50:21;27.50;86.10
21487;DHT22;10905;50.822;4.336;2022-07-17T12:52:46;27.40;87.00
21487;DHT22;10905;50.822;4.336;2022-07-17T12:55:12;27.10;85.60
21487;DHT22;10905;50.822;4.336;2022-07-17T12:57:37;26.90;87.00
21487;DHT22;10905;50.822;4.336;2022-07-17T13:00:03;27.10;86.60
21487;DHT22;10905;50.822;4.336;2022-07-17T13:02:29;27.00;86.40
21487;DHT22;10905;50.822;4.336;2022-07-17T13:04:55;27.10;87.50
21487;DHT22;10905;50.822;4.336;2022-07-17T13:07:20;27.30;88.00
21487;DHT22;10905;50.822;4.336;2022-07-17T13:09:46;27.60;87.80
21487;DHT22;10905;50.822;4.336;2022-07-17T13:12:11;27.50;88.50
21487;DHT22;10905;50.822;4.336;2022-07-17T13:14:37;27.50;89.00
21487;DHT22;10905;50.822;4.336;2022-07-17T13:17:02;27.70;88.20
21487;DHT22;10905;50.822;4.336;2022-07-17T13:19:28;27.70;84.60
21487;DHT22;10905;50.822;4.336;2022-07-17T13:21:54;27.90;84.10
21487;DHT22;10905;50.822;4.336;2022-07-17T13:24:19;27.70;84.80
21487;DHT22;10905;50.822;4.336;2022-07-17T13:26:46;27.70;86.70
21487;DHT22;10905;50.822;4.336;2022-07-17T13:29:11;27.50;85.70
21487;DHT22;10905;50.822;4.336;2022-07-17T13:31:37;27.80;86.70
21487;DHT22;10905;50.822;4.336;2022-07-17T13:34:03;27.80;85.60
21487;DHT22;10905;50.822;4.336;2022-07-17T13:36:28;27.70;84.10
21487;DHT22;10905;50.822;4.336;2022-07-17T13:38:54;27.60;82.80
21487;DHT22;10905;50.822;4.336;2022-07-17T13:41:19;27.70;84.00
21487;DHT22;10905;50.822;4.336;2022-07-17T13:43:45;27.80;84.40
21487;DHT22;10905;50.822;4.336;2022-07-17T13:46:10;27.90;84.30
21487;DHT22;10905;50.822;4.336;2022-07-17T13:48:36;28.20;82.00
21487;DHT22;10905;50.822;4.336;2022-07-17T13:51:02;28.50;79.70
21487;DHT22;10905;50.822;4.336;2022-07-17T13:53:27;28.70;78.10
21487;DHT22;10905;50.822;4.336;2022-07-17T13:55:54;28.60;77.00
21487;DHT22;10905;50.822;4.336;2022-07-17T13:58:20;28.60;78.60
21487;DHT22;10905;50.822;4.336;2022-07-17T14:00:45;28.70;78.10
21487;DHT22;10905;50.822;4.336;2022-07-17T14:03:11;28.80;79.90
21487;DHT22;10905;50.822;4.336;2022-07-17T14:05:36;28.90;79.30
21487;DHT22;10905;50.822;4.336;2022-07-17T14:08:02;29.10;81.00
21487;DHT22;10905;50.822;4.336;2022-07-17T14:10:28;29.10;81.30
21487;DHT22;10905;50.822;4.336;2022-07-17T14:12:53;29.00;79.60
21487;DHT22;10905;50.822;4.336;2022-07-17T14:15:19;29.20;79.60
21487;DHT22;10905;50.822;4.336;2022-07-17T14:17:44;29.20;78.40
21487;DHT22;10905;50.822;4.336;2022-07-17T14:20:10;29.30;77.70
21487;DHT22;10905;50.822;4.336;2022-07-17T14:22:36;29.50;77.90
21487;DHT22;10905;50.822;4.336;2022-07-17T14:25:02;29.80;77.60
21487;DHT22;10905;50.822;4.336;2022-07-17T14:27:27;29.70;73.50
21487;DHT22;10905;50.822;4.336;2022-07-17T14:29:53;29.80;76.50
21487;DHT22;10905;50.822;4.336;2022-07-17T14:32:18;29.80;76.30
21487;DHT22;10905;50.822;4.336;2022-07-17T14:34:44;29.90;75.90
21487;DHT22;10905;50.822;4.336;2022-07-17T14:37:09;30.00;74.50
21487;DHT22;10905;50.822;4.336;2022-07-17T14:39:35;30.00;75.10
21487;DHT22;10905;50.822;4.336;2022-07-17T14:42:01;30.00;73.50
21487;DHT22;10905;50.822;4.336;2022-07-17T14:44:26;29.80;71.80
21487;DHT22;10905;50.822;4.336;2022-07-17T14:46:53;29.60;73.90
21487;DHT22;10905;50.822;4.336;2022-07-17T14:49:18;29.40;73.90
21487;DHT22;10905;50.822;4.336;2022-07-17T14:51:43;29.40;74.90
21487;DHT22;10905;50.822;4.336;2022-07-17T14:54:09;29.60;73.90
21487;DHT22;10905;50.822;4.336;2022-07-17T14:56:35;29.50;74.90
21487;DHT22;10905;50.822;4.336;2022-07-17T14:59:01;29.60;73.90
21487;DHT22;10905;50.822;4.336;2022-07-17T15:01:26;29.80;73.30
21487;DHT22;10905;50.822;4.336;2022-07-17T15:03:52;29.80;72.90
21487;DHT22;10905;50.822;4.336;2022-07-17T15:06:17;30.00;74.40
21487;DHT22;10905;50.822;4.336;2022-07-17T15:08:43;30.30;73.90
21487;DHT22;10905;50.822;4.336;2022-07-17T15:11:08;30.30;72.80
21487;DHT22;10905;50.822;4.336;2022-07-17T15:13:34;30.30;72.90
21487;DHT22;10905;50.822;4.336;2022-07-17T15:15:59;30.50;71.20
21487;DHT22;10905;50.822;4.336;2022-07-17T15:18:25;30.30;71.60
21487;DHT22;10905;50.822;4.336;2022-07-17T15:20:50;30.10;70.30
21487;DHT22;10905;50.822;4.336;2022-07-17T15:23:16;29.90;71.00
21487;DHT22;10905;50.822;4.336;2022-07-17T15:25:42;30.10;72.20
21487;DHT22;10905;50.822;4.336;2022-07-17T15:28:08;30.30;75.10
21487;DHT22;10905;50.822;4.336;2022-07-17T15:30:33;30.30;74.30
21487;DHT22;10905;50.822;4.336;2022-07-17T15:32:59;30.50;71.00
21487;DHT22;10905;50.822;4.336;2022-07-17T15:35:24;30.60;73.20
21487;DHT22;10905;50.822;4.336;2022-07-17T15:37:52;30.60;72.50
21487;DHT22;10905;50.822;4.336;2022-07-17T15:40:19;30.50;72.10